createdAt,value
2022-09-06T00:02:09.571Z,61.12
2022-09-06T00:04:37.336Z,61.27
2022-09-06T00:07:05.575Z,61.44
2022-09-06T00:09:33.283Z,61.23
2022-09-06T00:12:02.351Z,61.40
2022-09-06T00:14:30.057Z,61.49
2022-09-06T00:16:57.937Z,61.56
2022-09-06T00:19:25.799Z,61.96
2022-09-06T00:21:53.452Z,61.95
2022-09-06T00:24:21.165Z,62.34
2022-09-06T00:26:48.910Z,61.97
2022-09-06T00:29:17.964Z,62.25
2022-09-06T00:31:45.738Z,62.51
2022-09-06T00:34:13.433Z,62.69
2022-09-06T00:36:41.072Z,62.92
2022-09-06T00:39:08.905Z,62.88
2022-09-06T00:41:36.584Z,62.68
2022-09-06T00:44:04.692Z,62.73
2022-09-06T00:46:34.734Z,62.54
2022-09-06T00:49:06.353Z,62.45
2022-09-06T00:51:36.446Z,62.28
2022-09-06T00:54:06.331Z,62.12
2022-09-06T00:56:36.402Z,61.92
2022-09-06T00:59:05.208Z,61.76
2022-09-06T01:01:34.420Z,61.87
2022-09-06T01:04:04.182Z,61.78
2022-09-06T01:06:43.642Z,61.83
2022-09-06T01:09:21.397Z,62.00
2022-09-06T01:11:59.881Z,62.07
2022-09-06T01:14:41.688Z,62.00
2022-09-06T01:17:20.807Z,61.88
2022-09-06T01:20:21.332Z,62.01
2022-09-06T01:23:16.827Z,62.40
2022-09-06T01:25:56.700Z,62.60
2022-09-06T01:28:32.231Z,62.60
2022-09-06T01:31:08.980Z,62.70
2022-09-06T01:33:42.345Z,62.95
2022-09-06T01:36:15.827Z,62.76
2022-09-06T01:38:43.659Z,62.71
2022-09-06T01:41:12.188Z,62.75
2022-09-06T01:43:46.107Z,62.85
2022-09-06T01:46:20.926Z,63.27
2022-09-06T01:49:04.951Z,63.00
2022-09-06T01:51:40.827Z,63.07
2022-09-06T01:54:24.983Z,63.01
2022-09-06T01:57:08.933Z,62.83
2022-09-06T01:59:51.746Z,62.82
2022-09-06T02:02:26.221Z,62.69
2022-09-06T02:05:02.428Z,62.72
2022-09-06T02:07:33.582Z,62.75
2022-09-06T02:10:08.024Z,62.43
2022-09-06T02:12:40.328Z,62.43
2022-09-06T02:15:12.518Z,62.36
2022-09-06T02:17:46.451Z,62.06
2022-09-06T02:20:18.437Z,62.31
2022-09-06T02:22:49.163Z,62.48
2022-09-06T02:25:24.809Z,62.39
2022-09-06T02:27:53.328Z,62.57
2022-09-06T02:30:22.595Z,62.51
2022-09-06T02:32:57.115Z,62.71
2022-09-06T02:35:25.354Z,63.03
2022-09-06T02:37:53.250Z,63.16
2022-09-06T02:40:21.571Z,63.24
2022-09-06T02:42:49.590Z,63.24
2022-09-06T02:45:17.441Z,63.21
2022-09-06T02:47:46.511Z,63.37
2022-09-06T02:50:15.403Z,63.32
2022-09-06T02:52:43.218Z,63.13
2022-09-06T02:55:11.276Z,63.47
2022-09-06T02:57:39.553Z,63.35
2022-09-06T03:00:08.449Z,63.34
2022-09-06T03:02:36.311Z,63.41
2022-09-06T03:05:06.059Z,63.28
2022-09-06T03:07:33.786Z,63.47
2022-09-06T03:10:01.759Z,63.29
2022-09-06T03:12:29.702Z,63.42
2022-09-06T03:14:57.886Z,63.37
2022-09-06T03:17:25.962Z,63.30
2022-09-06T03:19:53.713Z,63.46
2022-09-06T03:22:22.692Z,63.45
2022-09-06T03:24:50.396Z,63.62
2022-09-06T03:27:18.172Z,63.59
2022-09-06T03:29:45.834Z,63.75
2022-09-06T03:32:13.455Z,63.53
2022-09-06T03:34:41.130Z,63.77
2022-09-06T03:37:08.907Z,63.68
2022-09-06T03:39:38.024Z,63.83
2022-09-06T03:42:05.832Z,63.74
2022-09-06T03:44:34.033Z,63.78
2022-09-06T03:47:01.682Z,63.67
2022-09-06T03:49:29.325Z,63.82
2022-09-06T03:51:57.205Z,64.04
2022-09-06T03:54:25.572Z,64.03
2022-09-06T03:56:54.625Z,63.86
2022-09-06T03:59:22.254Z,63.98
2022-09-06T04:01:49.872Z,64.06
2022-09-06T04:04:17.496Z,63.90
2022-09-06T04:06:45.139Z,63.78
2022-09-06T04:09:12.835Z,63.75
2022-09-06T04:11:42.917Z,63.97
2022-09-06T04:14:13.805Z,63.97
2022-09-06T04:16:41.524Z,63.84
2022-09-06T04:19:09.286Z,63.51
2022-09-06T04:21:36.924Z,64.03
2022-09-06T04:24:04.547Z,64.03
2022-09-06T04:26:32.191Z,63.96
2022-09-06T04:28:59.822Z,63.72
2022-09-06T04:31:29.167Z,63.90
2022-09-06T04:33:56.818Z,63.57
2022-09-06T04:36:24.455Z,63.44
2022-09-06T04:38:52.266Z,63.29
2022-09-06T04:41:19.891Z,63.30
2022-09-06T04:43:47.759Z,62.80
2022-09-06T04:46:23.103Z,63.14
2022-09-06T04:48:53.051Z,63.13
2022-09-06T04:51:21.459Z,62.73
2022-09-06T04:53:49.532Z,62.73
2022-09-06T04:56:19.369Z,62.61
2022-09-06T04:58:48.717Z,62.57
2022-09-06T05:01:17.274Z,62.32
2022-09-06T05:03:45.030Z,62.37
2022-09-06T05:06:19.247Z,62.13
2022-09-06T05:08:46.885Z,62.01
2022-09-06T05:11:14.839Z,61.97
2022-09-06T05:13:42.569Z,61.78
2022-09-06T05:16:10.655Z,61.78
2022-09-06T05:18:38.451Z,61.65
2022-09-06T05:21:07.619Z,61.46
2022-09-06T05:23:36.973Z,61.37
2022-09-06T05:26:05.097Z,61.39
2022-09-06T05:28:32.758Z,61.44
2022-09-06T05:31:10.719Z,61.32
2022-09-06T05:33:38.407Z,61.07
2022-09-06T05:36:07.343Z,60.92
2022-09-06T05:38:36.338Z,60.96
2022-09-06T05:41:03.964Z,60.96
2022-09-06T05:43:31.929Z,60.73
2022-09-06T05:46:00.124Z,60.83
2022-09-06T05:48:28.000Z,60.28
2022-09-06T05:51:02.656Z,60.60
2022-09-06T05:53:36.456Z,60.35
2022-09-06T05:56:05.393Z,60.38
2022-09-06T05:58:33.235Z,60.16
2022-09-06T06:01:08.948Z,59.91
2022-09-06T06:03:36.602Z,60.06
2022-09-06T06:06:04.260Z,59.86
2022-09-06T06:08:31.908Z,59.60
2022-09-06T06:11:01.420Z,59.52
2022-09-06T06:13:31.729Z,59.71
2022-09-06T06:15:59.658Z,59.25
2022-09-06T06:18:27.337Z,59.17
2022-09-06T06:21:08.501Z,59.11
2022-09-06T06:23:36.211Z,58.85
2022-09-06T06:26:05.421Z,58.87
2022-09-06T06:28:33.389Z,58.71
2022-09-06T06:31:01.033Z,58.78
2022-09-06T06:33:29.078Z,58.78
2022-09-06T06:36:01.321Z,58.45
2022-09-06T06:38:32.796Z,58.31
2022-09-06T06:41:05.849Z,58.14
2022-09-06T06:43:37.870Z,58.12
2022-09-06T06:46:06.644Z,57.83
2022-09-06T06:48:34.382Z,57.69
2022-09-06T06:51:02.286Z,57.73
2022-09-06T06:53:30.161Z,57.69
2022-09-06T06:55:57.790Z,57.62
2022-09-06T06:58:25.774Z,57.54
2022-09-06T07:00:54.867Z,57.46
2022-09-06T07:03:22.544Z,57.38
2022-09-06T07:08:38.276Z,57.04
2022-09-06T07:11:07.426Z,57.27
2022-09-06T07:13:35.212Z,56.63
2022-09-06T07:16:13.311Z,56.89
2022-09-06T07:18:42.264Z,56.87
2022-09-06T07:24:07.012Z,56.36
2022-09-06T07:26:36.620Z,55.86
2022-09-06T07:29:06.143Z,56.05
2022-09-06T07:34:25.195Z,56.00
2022-09-06T07:36:53.335Z,55.74
2022-09-06T07:39:21.102Z,55.79
2022-09-06T07:41:48.895Z,55.40
2022-09-06T07:44:16.648Z,55.41
2022-09-06T07:46:45.822Z,55.46
2022-09-06T07:49:13.612Z,55.48
2022-09-06T07:51:41.241Z,55.51
2022-09-06T07:56:56.474Z,55.59
2022-09-06T07:59:24.090Z,55.53
2022-09-06T08:01:53.324Z,55.08
2022-09-06T08:04:21.017Z,55.15
2022-09-06T08:09:39.772Z,54.97
2022-09-06T08:12:08.224Z,55.03
2022-09-06T08:14:36.540Z,54.80
2022-09-06T08:17:05.560Z,54.86
2022-09-06T08:19:34.406Z,54.67
2022-09-06T08:22:02.039Z,54.35
2022-09-06T08:24:29.692Z,54.21
2022-09-06T08:26:57.306Z,53.62
2022-09-06T08:29:25.972Z,53.34
2022-09-06T08:31:53.899Z,53.54
2022-09-06T08:34:22.931Z,53.59
2022-09-06T08:36:50.585Z,53.51
2022-09-06T08:39:18.630Z,53.82
2022-09-06T08:41:51.325Z,53.80
2022-09-06T08:47:12.543Z,53.88
2022-09-06T08:49:44.997Z,53.71
2022-09-06T08:52:35.264Z,53.51
2022-09-06T08:55:22.659Z,53.50
2022-09-06T08:58:02.145Z,53.61
2022-09-06T09:00:30.697Z,53.38
2022-09-06T09:03:12.051Z,53.23
2022-09-06T09:05:49.045Z,53.44
2022-09-06T09:08:26.558Z,53.70
2022-09-06T09:10:58.895Z,53.66
2022-09-06T09:13:30.258Z,53.34
2022-09-06T09:15:58.091Z,53.36
2022-09-06T09:18:30.490Z,52.97
2022-09-06T09:21:00.416Z,53.18
2022-09-06T09:23:29.987Z,52.95
2022-09-06T09:26:03.365Z,52.25
2022-09-06T09:28:31.245Z,51.95
2022-09-06T09:31:00.045Z,51.82
2022-09-06T09:33:36.935Z,51.17
2022-09-06T09:36:10.902Z,51.21
2022-09-06T09:38:44.340Z,50.50
2022-09-06T09:41:28.600Z,50.44
2022-09-06T09:44:04.178Z,49.93
2022-09-06T09:46:34.489Z,49.49
2022-09-06T09:49:08.595Z,49.29
2022-09-06T09:51:39.388Z,49.26
2022-09-06T09:54:09.036Z,48.82
2022-09-06T09:56:48.288Z,48.84
2022-09-06T09:59:25.226Z,48.89
2022-09-06T10:01:56.338Z,48.40
2022-09-06T10:04:46.975Z,48.42
2022-09-06T10:07:20.553Z,48.74
2022-09-06T10:09:49.842Z,48.30
2022-09-06T10:12:20.001Z,47.73
2022-09-06T10:14:49.770Z,47.03
2022-09-06T10:17:28.819Z,46.88
2022-09-06T10:19:57.301Z,46.78
2022-09-06T10:22:31.736Z,46.24
2022-09-06T10:25:32.279Z,45.66
2022-09-06T10:28:29.241Z,45.77
2022-09-06T10:31:20.106Z,45.74
2022-09-06T10:34:03.499Z,45.15
2022-09-06T10:36:35.998Z,45.20
2022-09-06T10:39:18.706Z,44.37
2022-09-06T10:41:59.661Z,43.94
2022-09-06T10:44:50.041Z,43.62
2022-09-06T10:47:19.179Z,44.00
2022-09-06T10:49:54.341Z,44.48
2022-09-06T10:52:26.349Z,43.80
2022-09-06T10:55:02.184Z,43.50
2022-09-06T11:00:24.089Z,42.83
2022-09-06T11:05:49.866Z,42.45
2022-09-06T11:11:20.805Z,42.18
2022-09-06T11:13:48.606Z,42.26
2022-09-06T11:16:22.726Z,42.24
2022-09-06T11:18:56.452Z,41.43
2022-09-06T11:21:46.549Z,41.27
2022-09-06T11:24:16.380Z,40.63
2022-09-06T11:26:58.780Z,40.42
2022-09-06T11:29:28.824Z,40.40
2022-09-06T11:34:54.675Z,40.17
2022-09-06T11:37:28.693Z,40.35
2022-09-06T11:43:14.028Z,41.04
2022-09-06T11:45:48.583Z,41.02
2022-09-06T11:48:37.676Z,40.76
2022-09-06T11:51:10.873Z,40.49
2022-09-06T11:54:13.042Z,40.23
2022-09-06T11:56:43.839Z,39.11
2022-09-06T11:59:34.678Z,38.78
2022-09-06T12:02:04.331Z,38.48
2022-09-06T12:05:09.921Z,38.50
2022-09-06T12:07:40.015Z,38.34
2022-09-06T12:10:40.128Z,38.32
2022-09-06T12:13:48.530Z,37.55
2022-09-06T12:16:19.315Z,38.39
2022-09-06T12:19:04.005Z,37.58
2022-09-06T12:21:52.384Z,37.13
2022-09-06T12:24:56.823Z,36.68
2022-09-06T12:27:27.235Z,36.29
2022-09-06T12:29:59.384Z,36.14
2022-09-06T12:32:36.759Z,35.89
2022-09-06T12:37:57.836Z,35.93
2022-09-06T12:40:27.631Z,35.71
2022-09-06T12:42:56.337Z,35.58
2022-09-06T12:45:27.568Z,35.98
2022-09-06T12:48:09.674Z,35.97
2022-09-06T12:50:37.869Z,36.01
2022-09-06T12:53:23.130Z,36.27
2022-09-06T12:56:05.214Z,36.38
2022-09-06T12:58:33.472Z,36.13
2022-09-06T13:01:07.786Z,35.98
2022-09-06T13:03:40.824Z,35.45
2022-09-06T13:06:12.244Z,35.55
2022-09-06T13:08:45.544Z,35.38
2022-09-06T13:11:16.290Z,35.27
2022-09-06T13:13:49.307Z,35.19
2022-09-06T13:16:22.351Z,34.72
2022-09-06T13:18:51.919Z,34.74
2022-09-06T13:21:28.731Z,35.11
2022-09-06T13:23:59.081Z,35.07
2022-09-06T13:26:34.615Z,34.88
2022-09-06T13:29:13.315Z,34.77
2022-09-06T13:31:46.535Z,34.24
2022-09-06T13:34:23.298Z,34.71
2022-09-06T13:36:52.951Z,35.14
2022-09-06T13:39:34.841Z,35.40
2022-09-06T13:42:05.789Z,35.25
2022-09-06T13:44:36.212Z,35.67
2022-09-06T13:47:04.686Z,35.40
2022-09-06T13:49:34.500Z,36.13
2022-09-06T13:52:04.692Z,36.19
2022-09-06T13:54:34.776Z,35.93
2022-09-06T13:57:02.908Z,35.94
2022-09-06T13:59:31.579Z,35.84
2022-09-06T14:02:02.926Z,36.09
2022-09-06T14:04:32.445Z,36.09
2022-09-06T14:07:01.533Z,36.16
2022-09-06T14:09:29.588Z,35.18
2022-09-06T14:11:57.682Z,35.57
2022-09-06T14:14:25.673Z,35.81
2022-09-06T14:16:54.080Z,35.87
2022-09-06T14:19:21.841Z,36.07
2022-09-06T14:21:49.702Z,35.84
2022-09-06T14:24:19.060Z,36.16
2022-09-06T14:26:47.236Z,36.22
2022-09-06T14:29:15.176Z,36.65
2022-09-06T14:31:42.892Z,36.55
2022-09-06T14:34:10.964Z,36.58
2022-09-06T14:36:38.710Z,36.73
2022-09-06T14:39:06.548Z,36.76
2022-09-06T14:41:36.362Z,36.88
2022-09-06T14:44:04.804Z,37.26
2022-09-06T14:46:32.726Z,37.24
2022-09-06T14:49:02.302Z,37.35
2022-09-06T14:51:31.107Z,37.39
2022-09-06T14:54:02.356Z,37.79
2022-09-06T14:56:30.362Z,37.82
2022-09-06T14:59:00.426Z,38.17
2022-09-06T15:01:34.121Z,38.71
2022-09-06T15:04:05.078Z,38.90
2022-09-06T15:06:35.013Z,39.12
2022-09-06T15:09:02.814Z,39.14
2022-09-06T15:11:34.691Z,39.54
2022-09-06T15:14:05.604Z,39.80
2022-09-06T15:16:34.290Z,40.13
2022-09-06T15:19:02.772Z,39.96
2022-09-06T15:21:31.514Z,39.90
2022-09-06T15:23:59.861Z,39.89
2022-09-06T15:26:27.510Z,40.25
2022-09-06T15:28:55.463Z,40.75
2022-09-06T15:31:24.550Z,40.92
2022-09-06T15:33:52.861Z,41.46
2022-09-06T15:36:21.829Z,41.94
2022-09-06T15:38:50.850Z,42.37
2022-09-06T15:41:20.846Z,42.68
2022-09-06T15:43:50.621Z,42.83
2022-09-06T15:46:22.167Z,43.24
2022-09-06T15:48:53.717Z,43.29
2022-09-06T15:51:22.175Z,43.27
2022-09-06T15:53:49.857Z,43.19
2022-09-06T15:56:18.915Z,43.62
2022-09-06T15:58:47.681Z,44.30
2022-09-06T16:01:17.253Z,44.50
2022-09-06T16:03:46.814Z,44.93
2022-09-06T16:06:26.863Z,45.44
2022-09-06T16:08:59.369Z,45.70
2022-09-06T16:11:28.171Z,45.78
2022-09-06T16:13:56.238Z,46.61
2022-09-06T16:16:24.145Z,46.42
2022-09-06T16:18:53.132Z,46.73
2022-09-06T16:21:24.751Z,46.81
2022-09-06T16:23:54.001Z,47.21
2022-09-06T16:26:25.005Z,47.45
2022-09-06T16:28:53.581Z,47.74
2022-09-06T16:31:22.289Z,47.90
2022-09-06T16:33:50.653Z,48.36
2022-09-06T16:36:19.516Z,48.82
2022-09-06T16:38:49.518Z,48.99
2022-09-06T16:41:20.640Z,49.29
2022-09-06T16:43:50.053Z,49.78
2022-09-06T16:46:18.307Z,49.67
2022-09-06T16:48:52.108Z,49.88
2022-09-06T16:51:20.733Z,50.04
2022-09-06T16:53:50.866Z,50.29
2022-09-06T16:56:20.328Z,50.45
2022-09-06T16:58:51.484Z,50.84
2022-09-06T17:01:20.039Z,51.20
2022-09-06T17:03:48.249Z,51.37
2022-09-06T17:06:16.539Z,51.56
2022-09-06T17:08:44.861Z,51.90
2022-09-06T17:11:16.208Z,52.00
2022-09-06T17:13:44.933Z,52.29
2022-09-06T17:16:30.481Z,52.61
2022-09-06T17:19:01.132Z,52.48
2022-09-06T17:21:30.263Z,52.50
2022-09-06T17:23:58.648Z,52.80
2022-09-06T17:26:27.724Z,52.93
2022-09-06T17:28:56.919Z,52.83
2022-09-06T17:31:26.069Z,53.18
2022-09-06T17:33:54.184Z,53.36
2022-09-06T17:36:24.236Z,53.37
2022-09-06T17:38:54.170Z,53.25
2022-09-06T17:41:25.711Z,53.50
2022-09-06T17:43:55.391Z,53.57
2022-09-06T17:46:28.447Z,54.19
2022-09-06T17:48:57.053Z,54.17
2022-09-06T17:51:25.863Z,54.18
2022-09-06T17:53:53.960Z,54.52
2022-09-06T17:56:22.591Z,54.67
2022-09-06T17:58:56.111Z,54.85
2022-09-06T18:01:25.670Z,55.12
2022-09-06T18:03:53.658Z,55.10
2022-09-06T18:06:23.606Z,55.50
2022-09-06T18:08:53.044Z,55.93
2022-09-06T18:11:23.417Z,56.00
2022-09-06T18:13:58.492Z,56.04
2022-09-06T18:16:27.580Z,56.62
2022-09-06T18:18:57.454Z,56.78
2022-09-06T18:21:27.436Z,57.06
2022-09-06T18:23:55.775Z,57.37
2022-09-06T18:26:24.520Z,57.38
2022-09-06T18:28:53.387Z,57.47
2022-09-06T18:31:24.437Z,57.75
2022-09-06T18:33:52.720Z,58.06
2022-09-06T18:36:21.113Z,58.10
2022-09-06T18:38:48.775Z,58.38
2022-09-06T18:41:30.995Z,58.56
2022-09-06T18:44:00.703Z,58.67
2022-09-06T18:46:30.603Z,58.90
2022-09-06T18:48:58.357Z,58.85
2022-09-06T18:51:26.285Z,59.28
2022-09-06T18:53:54.220Z,59.30
2022-09-06T18:56:21.875Z,59.61
2022-09-06T18:58:49.695Z,59.74
2022-09-06T19:01:20.127Z,59.79
2022-09-06T19:03:49.194Z,59.98
2022-09-06T19:06:19.743Z,60.10
2022-09-06T19:08:48.550Z,60.53
2022-09-06T19:11:18.790Z,60.56
2022-09-06T19:13:47.990Z,61.12
2022-09-06T19:16:16.064Z,60.78
2022-09-06T19:18:43.841Z,60.98
2022-09-06T19:21:14.286Z,61.25
2022-09-06T19:23:44.073Z,61.76
2022-09-06T19:26:16.848Z,61.59
2022-09-06T19:28:49.627Z,62.22
2022-09-06T19:31:18.429Z,62.37
2022-09-06T19:33:48.007Z,62.67
2022-09-06T19:36:18.255Z,62.72
2022-09-06T19:39:03.011Z,62.77
2022-09-06T19:41:32.911Z,62.97
2022-09-06T19:44:01.679Z,63.08
2022-09-06T19:46:29.456Z,63.51
2022-09-06T19:48:57.283Z,63.83
2022-09-06T19:51:26.274Z,64.24
2022-09-06T19:53:57.535Z,64.62
2022-09-06T19:56:27.224Z,64.39
2022-09-06T19:58:56.429Z,64.68
2022-09-06T20:01:25.504Z,65.04
2022-09-06T20:03:54.001Z,65.03
2022-09-06T20:06:22.414Z,65.37
2022-09-06T20:08:53.324Z,65.87
2022-09-06T20:11:23.169Z,66.09
2022-09-06T20:13:51.128Z,66.18
2022-09-06T20:16:20.860Z,66.38
2022-09-06T20:18:49.350Z,66.13
2022-09-06T20:21:18.528Z,66.62
2022-09-06T20:23:51.580Z,66.77
2022-09-06T20:26:20.018Z,66.74
2022-09-06T20:28:48.843Z,67.11
2022-09-06T20:31:18.233Z,67.02
2022-09-06T20:33:49.715Z,67.36
2022-09-06T20:36:18.692Z,67.21
2022-09-06T20:38:47.741Z,67.84
2022-09-06T20:41:18.397Z,67.87
2022-09-06T20:43:46.824Z,67.79
2022-09-06T20:46:16.777Z,68.07
2022-09-06T20:48:46.001Z,67.97
2022-09-06T20:51:15.649Z,68.20
2022-09-06T20:53:43.374Z,68.45
2022-09-06T20:56:13.030Z,68.56
2022-09-06T20:58:42.781Z,68.60
2022-09-06T21:01:15.237Z,68.98
2022-09-06T21:03:43.669Z,69.19
2022-09-06T21:06:13.303Z,69.54
2022-09-06T21:08:43.107Z,69.50
2022-09-06T21:11:11.725Z,69.27
2022-09-06T21:13:40.493Z,69.66
2022-09-06T21:16:09.977Z,69.66
2022-09-06T21:18:37.809Z,69.99
2022-09-06T21:21:07.844Z,69.96
2022-09-06T21:23:36.897Z,70.10
2022-09-06T21:26:06.571Z,70.05
2022-09-06T21:28:36.606Z,70.23
2022-09-06T21:31:08.135Z,70.08
2022-09-06T21:33:40.446Z,70.27
2022-09-06T21:36:09.721Z,70.12
2022-09-06T21:38:39.314Z,70.59
2022-09-06T21:41:08.540Z,70.62
2022-09-06T21:43:36.573Z,70.88
2022-09-06T21:46:04.959Z,70.95
2022-09-06T21:48:32.675Z,71.01
2022-09-06T21:51:01.641Z,71.28
2022-09-06T21:53:29.276Z,71.68
2022-09-06T21:56:00.434Z,71.78
2022-09-06T21:58:28.449Z,72.21
2022-09-06T22:00:59.192Z,72.33
2022-09-06T22:03:27.345Z,72.72
2022-09-06T22:05:55.680Z,72.98
2022-09-06T22:08:25.509Z,72.88
2022-09-06T22:10:53.242Z,73.05
2022-09-06T22:13:21.886Z,73.14
2022-09-06T22:15:49.566Z,73.39
2022-09-06T22:18:17.204Z,73.74
2022-09-06T22:20:44.862Z,74.12
2022-09-06T22:23:12.471Z,74.58
2022-09-06T22:25:42.905Z,74.82
2022-09-06T22:28:10.774Z,75.26
2022-09-06T22:30:39.267Z,75.60
2022-09-06T22:33:06.871Z,76.03
2022-09-06T22:35:34.869Z,76.46
2022-09-06T22:38:02.625Z,76.86
2022-09-06T22:40:30.257Z,77.39
2022-09-06T22:42:59.209Z,77.97
2022-09-06T22:45:26.873Z,78.51
2022-09-06T22:47:54.912Z,78.96
2022-09-06T22:50:22.578Z,79.33
2022-09-06T22:52:50.192Z,79.54
2022-09-06T22:55:18.257Z,79.97
2022-09-06T22:57:45.892Z,80.20
2022-09-06T23:00:15.853Z,80.21
2022-09-06T23:02:43.607Z,80.11
2022-09-06T23:05:11.246Z,80.28
2022-09-06T23:07:38.900Z,80.38
2022-09-06T23:10:07.523Z,80.45
2022-09-06T23:12:35.141Z,80.45
2022-09-06T23:15:02.844Z,80.35
2022-09-06T23:17:31.814Z,80.55
2022-09-06T23:19:59.989Z,81.01
2022-09-06T23:22:27.764Z,81.14
2022-09-06T23:24:55.397Z,81.20
2022-09-06T23:27:23.021Z,81.40
2022-09-06T23:29:50.797Z,81.37
2022-09-06T23:32:18.434Z,81.55
2022-09-06T23:34:47.846Z,81.92
2022-09-06T23:37:15.480Z,82.04
2022-09-06T23:39:43.202Z,81.76
2022-09-06T23:42:10.858Z,82.00
2022-09-06T23:44:38.525Z,81.67
2022-09-06T23:47:06.575Z,81.79
2022-09-06T23:49:34.248Z,81.92
2022-09-06T23:52:03.785Z,81.98
2022-09-06T23:54:31.421Z,82.12
2022-09-06T23:56:59.077Z,82.38
2022-09-06T23:59:26.743Z,82.78
